sensor_id;sensor_type;location;lat;lon;timestamp;temperature;humidity
56861;DHT22;42744;51.094;3.490;2023-04-24T00:00:29;9.20;99.90
56861;DHT22;42744;51.094;3.490;2023-04-24T00:02:55;9.20;99.90
56861;DHT22;42744;51.094;3.490;2023-04-24T00:05:22;9.20;99.90
56861;DHT22;42744;51.094;3.490;2023-04-24T00:07:48;9.20;99.90
56861;DHT22;42744;51.094;3.490;2023-04-24T00:10:15;9.20;99.90
56861;DHT22;42744;51.094;3.490;2023-04-24T00:12:40;9.20;99.90
56861;DHT22;42744;51.094;3.490;2023-04-24T00:15:07;9.10;99.90
56861;DHT22;42744;51.094;3.490;2023-04-24T00:17:33;9.10;99.90
56861;DHT22;42744;51.094;3.490;2023-04-24T00:19:59;9.10;99.90
56861;DHT22;42744;51.094;3.490;2023-04-24T00:22:27;9.10;99.90
56861;DHT22;42744;51.094;3.490;2023-04-24T00:24:54;9.10;99.90
56861;DHT22;42744;51.094;3.490;2023-04-24T00:27:20;9.10;99.90
56861;DHT22;42744;51.094;3.490;2023-04-24T00:29:47;9.10;99.90
56861;DHT22;42744;51.094;3.490;2023-04-24T00:32:13;9.10;99.90
56861;DHT22;42744;51.094;3.490;2023-04-24T00:34:40;9.10;99.90
56861;DHT22;42744;51.094;3.490;2023-04-24T00:37:06;9.10;99.90
56861;DHT22;42744;51.094;3.490;2023-04-24T00:39:32;9.00;99.90
56861;DHT22;42744;51.094;3.490;2023-04-24T00:41:59;9.10;99.90
56861;DHT22;42744;51.094;3.490;2023-04-24T00:44:25;9.00;99.90
56861;DHT22;42744;51.094;3.490;2023-04-24T00:46:51;9.10;99.90
56861;DHT22;42744;51.094;3.490;2023-04-24T00:49:21;9.10;99.90
56861;DHT22;42744;51.094;3.490;2023-04-24T00:51:48;9.10;99.90
56861;DHT22;42744;51.094;3.490;2023-04-24T00:54:15;9.00;99.90
56861;DHT22;42744;51.094;3.490;2023-04-24T00:56:42;9.00;99.90
56861;DHT22;42744;51.094;3.490;2023-04-24T00:59:09;9.10;99.90
56861;DHT22;42744;51.094;3.490;2023-04-24T01:01:36;9.10;99.90
56861;DHT22;42744;51.094;3.490;2023-04-24T01:04:02;9.10;99.90
56861;DHT22;42744;51.094;3.490;2023-04-24T01:06:29;9.00;99.90
56861;DHT22;42744;51.094;3.490;2023-04-24T01:08:58;9.00;99.90
56861;DHT22;42744;51.094;3.490;2023-04-24T01:11:25;9.10;99.90
56861;DHT22;42744;51.094;3.490;2023-04-24T01:13:51;9.10;99.90
56861;DHT22;42744;51.094;3.490;2023-04-24T01:16:18;9.00;99.90
56861;DHT22;42744;51.094;3.490;2023-04-24T01:18:46;9.00;99.90
56861;DHT22;42744;51.094;3.490;2023-04-24T01:21:14;9.00;99.90
56861;DHT22;42744;51.094;3.490;2023-04-24T01:23:46;9.00;99.90
56861;DHT22;42744;51.094;3.490;2023-04-24T01:26:16;9.00;99.90
56861;DHT22;42744;51.094;3.490;2023-04-24T01:28:42;9.00;99.90
56861;DHT22;42744;51.094;3.490;2023-04-24T01:31:08;9.00;99.90
56861;DHT22;42744;51.094;3.490;2023-04-24T01:33:34;8.90;99.90
56861;DHT22;42744;51.094;3.490;2023-04-24T01:36:01;9.00;99.90
56861;DHT22;42744;51.094;3.490;2023-04-24T01:38:27;9.00;99.90
56861;DHT22;42744;51.094;3.490;2023-04-24T01:40:53;9.00;99.90
56861;DHT22;42744;51.094;3.490;2023-04-24T01:43:20;9.00;99.90
56861;DHT22;42744;51.094;3.490;2023-04-24T01:45:46;9.00;99.90
56861;DHT22;42744;51.094;3.490;2023-04-24T01:48:13;9.00;99.90
56861;DHT22;42744;51.094;3.490;2023-04-24T01:50:39;9.00;99.90
56861;DHT22;42744;51.094;3.490;2023-04-24T01:53:05;9.00;99.90
56861;DHT22;42744;51.094;3.490;2023-04-24T01:55:31;9.00;99.90
56861;DHT22;42744;51.094;3.490;2023-04-24T01:57:59;9.00;99.90
56861;DHT22;42744;51.094;3.490;2023-04-24T02:00:26;9.00;99.90
56861;DHT22;42744;51.094;3.490;2023-04-24T02:02:52;9.00;99.90
56861;DHT22;42744;51.094;3.490;2023-04-24T02:05:18;9.00;99.90
56861;DHT22;42744;51.094;3.490;2023-04-24T02:07:44;9.00;99.90
56861;DHT22;42744;51.094;3.490;2023-04-24T02:10:11;9.00;99.90
56861;DHT22;42744;51.094;3.490;2023-04-24T02:12:41;9.00;99.90
56861;DHT22;42744;51.094;3.490;2023-04-24T02:15:07;9.00;99.90
56861;DHT22;42744;51.094;3.490;2023-04-24T02:17:36;9.00;99.90
56861;DHT22;42744;51.094;3.490;2023-04-24T02:20:04;9.00;99.90
56861;DHT22;42744;51.094;3.490;2023-04-24T02:22:31;9.00;99.90
56861;DHT22;42744;51.094;3.490;2023-04-24T02:24:56;9.00;99.90
56861;DHT22;42744;51.094;3.490;2023-04-24T02:27:22;9.00;99.90
56861;DHT22;42744;51.094;3.490;2023-04-24T02:29:48;9.00;99.90
56861;DHT22;42744;51.094;3.490;2023-04-24T02:32:14;9.00;99.90
56861;DHT22;42744;51.094;3.490;2023-04-24T02:34:42;9.00;99.90
56861;DHT22;42744;51.094;3.490;2023-04-24T02:37:08;9.00;99.90
56861;DHT22;42744;51.094;3.490;2023-04-24T02:39:35;9.00;99.90
56861;DHT22;42744;51.094;3.490;2023-04-24T02:42:02;9.00;99.90
56861;DHT22;42744;51.094;3.490;2023-04-24T02:44:29;8.90;99.90
56861;DHT22;42744;51.094;3.490;2023-04-24T02:46:55;8.90;99.90
56861;DHT22;42744;51.094;3.490;2023-04-24T02:49:22;8.90;99.90
56861;DHT22;42744;51.094;3.490;2023-04-24T02:51:48;8.90;99.90
56861;DHT22;42744;51.094;3.490;2023-04-24T02:54:14;8.90;99.90
56861;DHT22;42744;51.094;3.490;2023-04-24T02:56:40;8.90;99.90
56861;DHT22;42744;51.094;3.490;2023-04-24T02:59:06;8.80;99.90
56861;DHT22;42744;51.094;3.490;2023-04-24T03:01:32;8.80;99.90
56861;DHT22;42744;51.094;3.490;2023-04-24T03:03:58;8.90;99.90
56861;DHT22;42744;51.094;3.490;2023-04-24T03:06:24;8.80;99.90
56861;DHT22;42744;51.094;3.490;2023-04-24T03:08:51;8.80;99.90
56861;DHT22;42744;51.094;3.490;2023-04-24T03:11:17;8.80;99.90
56861;DHT22;42744;51.094;3.490;2023-04-24T03:13:43;8.80;99.90
56861;DHT22;42744;51.094;3.490;2023-04-24T03:16:09;8.80;99.90
56861;DHT22;42744;51.094;3.490;2023-04-24T03:18:35;8.80;99.90
56861;DHT22;42744;51.094;3.490;2023-04-24T03:21:02;8.70;99.90
56861;DHT22;42744;51.094;3.490;2023-04-24T03:23:30;8.70;99.90
56861;DHT22;42744;51.094;3.490;2023-04-24T03:25:56;8.70;99.90
56861;DHT22;42744;51.094;3.490;2023-04-24T03:28:22;8.60;99.90
56861;DHT22;42744;51.094;3.490;2023-04-24T03:30:48;8.60;99.90
56861;DHT22;42744;51.094;3.490;2023-04-24T03:33:15;8.60;99.90
56861;DHT22;42744;51.094;3.490;2023-04-24T03:35:42;8.60;99.90
56861;DHT22;42744;51.094;3.490;2023-04-24T03:38:08;8.60;99.90
56861;DHT22;42744;51.094;3.490;2023-04-24T03:40:38;8.60;99.90
56861;DHT22;42744;51.094;3.490;2023-04-24T03:43:05;8.60;99.90
56861;DHT22;42744;51.094;3.490;2023-04-24T03:45:31;8.60;99.90
56861;DHT22;42744;51.094;3.490;2023-04-24T03:47:57;8.60;99.90
56861;DHT22;42744;51.094;3.490;2023-04-24T03:50:24;8.50;99.90
56861;DHT22;42744;51.094;3.490;2023-04-24T03:52:52;8.50;99.90
56861;DHT22;42744;51.094;3.490;2023-04-24T03:55:22;8.50;99.90
56861;DHT22;42744;51.094;3.490;2023-04-24T03:57:48;8.50;99.90
56861;DHT22;42744;51.094;3.490;2023-04-24T04:00:17;8.50;99.90
56861;DHT22;42744;51.094;3.490;2023-04-24T04:02:44;8.50;99.90
56861;DHT22;42744;51.094;3.490;2023-04-24T04:05:10;8.50;99.90
56861;DHT22;42744;51.094;3.490;2023-04-24T04:07:36;8.50;99.90
56861;DHT22;42744;51.094;3.490;2023-04-24T04:10:03;8.50;99.90
56861;DHT22;42744;51.094;3.490;2023-04-24T04:12:29;8.50;99.90
56861;DHT22;42744;51.094;3.490;2023-04-24T04:14:55;8.50;99.90
56861;DHT22;42744;51.094;3.490;2023-04-24T04:17:22;8.50;99.90
56861;DHT22;42744;51.094;3.490;2023-04-24T04:19:47;8.50;99.90
56861;DHT22;42744;51.094;3.490;2023-04-24T04:22:13;8.50;99.90
56861;DHT22;42744;51.094;3.490;2023-04-24T04:24:40;8.50;99.90
56861;DHT22;42744;51.094;3.490;2023-04-24T04:27:07;8.50;99.90
56861;DHT22;42744;51.094;3.490;2023-04-24T04:29:34;8.50;99.90
56861;DHT22;42744;51.094;3.490;2023-04-24T04:32:02;8.40;99.90
56861;DHT22;42744;51.094;3.490;2023-04-24T04:34:28;8.40;99.90
56861;DHT22;42744;51.094;3.490;2023-04-24T04:36:55;8.40;99.90
56861;DHT22;42744;51.094;3.490;2023-04-24T04:39:22;8.40;99.90
56861;DHT22;42744;51.094;3.490;2023-04-24T04:41:49;8.40;99.90
56861;DHT22;42744;51.094;3.490;2023-04-24T04:44:16;8.40;99.90
56861;DHT22;42744;51.094;3.490;2023-04-24T04:46:42;8.40;99.90
56861;DHT22;42744;51.094;3.490;2023-04-24T04:49:10;8.40;99.90
56861;DHT22;42744;51.094;3.490;2023-04-24T04:51:37;8.40;99.90
56861;DHT22;42744;51.094;3.490;2023-04-24T04:54:04;8.40;99.90
56861;DHT22;42744;51.094;3.490;2023-04-24T04:56:31;8.40;99.90
56861;DHT22;42744;51.094;3.490;2023-04-24T04:58:58;8.40;99.90
56861;DHT22;42744;51.094;3.490;2023-04-24T05:01:25;8.40;99.90
56861;DHT22;42744;51.094;3.490;2023-04-24T05:03:54;8.40;99.90
56861;DHT22;42744;51.094;3.490;2023-04-24T05:06:20;8.40;99.90
56861;DHT22;42744;51.094;3.490;2023-04-24T05:08:46;8.40;99.90
56861;DHT22;42744;51.094;3.490;2023-04-24T05:11:13;8.40;99.90
56861;DHT22;42744;51.094;3.490;2023-04-24T05:13:40;8.40;99.90
56861;DHT22;42744;51.094;3.490;2023-04-24T05:16:09;8.40;99.90
56861;DHT22;42744;51.094;3.490;2023-04-24T05:18:35;8.50;99.90
56861;DHT22;42744;51.094;3.490;2023-04-24T05:21:02;8.50;99.90
56861;DHT22;42744;51.094;3.490;2023-04-24T05:23:28;8.50;99.90
56861;DHT22;42744;51.094;3.490;2023-04-24T05:25:54;8.50;99.90
56861;DHT22;42744;51.094;3.490;2023-04-24T05:28:21;8.50;99.90
56861;DHT22;42744;51.094;3.490;2023-04-24T05:30:50;8.50;99.90
56861;DHT22;42744;51.094;3.490;2023-04-24T05:33:16;8.50;99.90
56861;DHT22;42744;51.094;3.490;2023-04-24T05:35:42;8.50;99.90
56861;DHT22;42744;51.094;3.490;2023-04-24T05:38:13;8.50;99.90
56861;DHT22;42744;51.094;3.490;2023-04-24T05:40:39;8.50;99.90
56861;DHT22;42744;51.094;3.490;2023-04-24T05:43:05;8.50;99.90
56861;DHT22;42744;51.094;3.490;2023-04-24T05:45:31;8.60;99.90
56861;DHT22;42744;51.094;3.490;2023-04-24T05:47:57;8.60;99.90
56861;DHT22;42744;51.094;3.490;2023-04-24T05:50:23;8.60;99.90
56861;DHT22;42744;51.094;3.490;2023-04-24T05:52:49;8.60;99.90
56861;DHT22;42744;51.094;3.490;2023-04-24T05:55:17;8.60;99.90
56861;DHT22;42744;51.094;3.490;2023-04-24T05:57:44;8.70;99.90
56861;DHT22;42744;51.094;3.490;2023-04-24T06:00:11;8.60;99.90
56861;DHT22;42744;51.094;3.490;2023-04-24T06:02:39;8.70;99.90
56861;DHT22;42744;51.094;3.490;2023-04-24T06:07:23;8.70;99.90
56861;DHT22;42744;51.094;3.490;2023-04-24T06:09:49;8.70;99.90
56861;DHT22;42744;51.094;3.490;2023-04-24T06:12:15;8.70;99.90
56861;DHT22;42744;51.094;3.490;2023-04-24T06:14:43;8.70;99.90
56861;DHT22;42744;51.094;3.490;2023-04-24T06:17:10;8.80;99.90
56861;DHT22;42744;51.094;3.490;2023-04-24T06:19:37;8.80;99.90
56861;DHT22;42744;51.094;3.490;2023-04-24T06:22:03;8.80;99.90
56861;DHT22;42744;51.094;3.490;2023-04-24T06:24:29;8.80;99.90
56861;DHT22;42744;51.094;3.490;2023-04-24T06:26:55;8.80;99.90
56861;DHT22;42744;51.094;3.490;2023-04-24T06:29:22;8.80;99.90
56861;DHT22;42744;51.094;3.490;2023-04-24T06:31:49;8.80;99.90
56861;DHT22;42744;51.094;3.490;2023-04-24T06:34:15;8.80;99.90
56861;DHT22;42744;51.094;3.490;2023-04-24T06:36:41;8.90;99.90
56861;DHT22;42744;51.094;3.490;2023-04-24T06:39:07;8.90;99.90
56861;DHT22;42744;51.094;3.490;2023-04-24T06:41:33;8.90;99.90
56861;DHT22;42744;51.094;3.490;2023-04-24T06:44:00;9.00;99.90
56861;DHT22;42744;51.094;3.490;2023-04-24T06:46:26;8.90;99.90
56861;DHT22;42744;51.094;3.490;2023-04-24T06:48:56;8.90;99.90
56861;DHT22;42744;51.094;3.490;2023-04-24T06:51:26;8.90;99.90
56861;DHT22;42744;51.094;3.490;2023-04-24T06:53:53;8.90;99.90
56861;DHT22;42744;51.094;3.490;2023-04-24T06:56:19;8.90;99.90
56861;DHT22;42744;51.094;3.490;2023-04-24T06:58:46;9.00;99.90
56861;DHT22;42744;51.094;3.490;2023-04-24T07:01:12;9.00;99.90
56861;DHT22;42744;51.094;3.490;2023-04-24T07:03:38;9.10;99.90
56861;DHT22;42744;51.094;3.490;2023-04-24T07:06:05;9.20;99.90
56861;DHT22;42744;51.094;3.490;2023-04-24T07:08:31;9.20;99.90
56861;DHT22;42744;51.094;3.490;2023-04-24T07:10:59;9.30;99.90
56861;DHT22;42744;51.094;3.490;2023-04-24T07:13:25;9.30;99.90
56861;DHT22;42744;51.094;3.490;2023-04-24T07:15:51;9.30;99.90
56861;DHT22;42744;51.094;3.490;2023-04-24T07:18:20;9.30;99.90
56861;DHT22;42744;51.094;3.490;2023-04-24T07:20:46;9.20;99.90
56861;DHT22;42744;51.094;3.490;2023-04-24T07:23:13;9.20;99.90
56861;DHT22;42744;51.094;3.490;2023-04-24T07:25:39;9.10;99.90
56861;DHT22;42744;51.094;3.490;2023-04-24T07:28:05;9.20;99.90
56861;DHT22;42744;51.094;3.490;2023-04-24T07:30:31;9.20;99.90
56861;DHT22;42744;51.094;3.490;2023-04-24T07:32:58;9.30;99.90
56861;DHT22;42744;51.094;3.490;2023-04-24T07:35:25;9.30;99.90
56861;DHT22;42744;51.094;3.490;2023-04-24T07:37:53;9.30;99.90
56861;DHT22;42744;51.094;3.490;2023-04-24T07:40:19;9.30;99.90
56861;DHT22;42744;51.094;3.490;2023-04-24T07:42:45;9.40;99.90
56861;DHT22;42744;51.094;3.490;2023-04-24T07:45:14;9.60;99.90
56861;DHT22;42744;51.094;3.490;2023-04-24T07:47:44;9.70;99.90
56861;DHT22;42744;51.094;3.490;2023-04-24T07:50:12;9.90;99.90
56861;DHT22;42744;51.094;3.490;2023-04-24T07:52:38;9.90;99.90
56861;DHT22;42744;51.094;3.490;2023-04-24T07:55:04;9.80;99.90
56861;DHT22;42744;51.094;3.490;2023-04-24T07:57:33;9.80;99.90
56861;DHT22;42744;51.094;3.490;2023-04-24T08:00:06;9.70;99.90
56861;DHT22;42744;51.094;3.490;2023-04-24T08:02:37;9.60;99.90
56861;DHT22;42744;51.094;3.490;2023-04-24T08:05:03;9.70;99.90
56861;DHT22;42744;51.094;3.490;2023-04-24T08:07:29;9.70;99.90
56861;DHT22;42744;51.094;3.490;2023-04-24T08:09:55;9.70;99.90
56861;DHT22;42744;51.094;3.490;2023-04-24T08:12:21;9.80;99.90
56861;DHT22;42744;51.094;3.490;2023-04-24T08:14:47;9.80;99.90
56861;DHT22;42744;51.094;3.490;2023-04-24T08:17:13;9.90;99.90
56861;DHT22;42744;51.094;3.490;2023-04-24T08:19:40;10.30;99.90
56861;DHT22;42744;51.094;3.490;2023-04-24T08:22:13;10.40;99.90
56861;DHT22;42744;51.094;3.490;2023-04-24T08:24:39;10.40;99.90
56861;DHT22;42744;51.094;3.490;2023-04-24T08:27:06;10.30;99.90
56861;DHT22;42744;51.094;3.490;2023-04-24T08:29:32;10.20;99.90
56861;DHT22;42744;51.094;3.490;2023-04-24T08:31:58;10.20;99.90
56861;DHT22;42744;51.094;3.490;2023-04-24T08:34:24;10.20;99.90
56861;DHT22;42744;51.094;3.490;2023-04-24T08:36:50;10.20;99.90
56861;DHT22;42744;51.094;3.490;2023-04-24T08:39:17;10.30;99.90
56861;DHT22;42744;51.094;3.490;2023-04-24T08:41:43;10.40;99.90
56861;DHT22;42744;51.094;3.490;2023-04-24T08:44:11;10.40;99.90
56861;DHT22;42744;51.094;3.490;2023-04-24T08:46:39;10.40;99.90
56861;DHT22;42744;51.094;3.490;2023-04-24T08:49:06;10.30;99.90
56861;DHT22;42744;51.094;3.490;2023-04-24T08:51:33;10.20;99.90
56861;DHT22;42744;51.094;3.490;2023-04-24T08:53:59;10.20;99.90
56861;DHT22;42744;51.094;3.490;2023-04-24T08:56:25;10.30;99.90
56861;DHT22;42744;51.094;3.490;2023-04-24T08:58:54;10.30;99.90
56861;DHT22;42744;51.094;3.490;2023-04-24T09:01:21;10.30;99.90
56861;DHT22;42744;51.094;3.490;2023-04-24T09:03:49;10.40;99.90
56861;DHT22;42744;51.094;3.490;2023-04-24T09:06:21;10.50;99.90
56861;DHT22;42744;51.094;3.490;2023-04-24T09:08:51;10.50;99.90
56861;DHT22;42744;51.094;3.490;2023-04-24T09:11:23;10.50;99.90
56861;DHT22;42744;51.094;3.490;2023-04-24T09:13:51;10.60;99.90
56861;DHT22;42744;51.094;3.490;2023-04-24T09:16:17;10.60;99.90
56861;DHT22;42744;51.094;3.490;2023-04-24T09:18:43;10.80;99.90
56861;DHT22;42744;51.094;3.490;2023-04-24T09:21:10;10.80;99.90
56861;DHT22;42744;51.094;3.490;2023-04-24T09:23:36;10.90;99.90
56861;DHT22;42744;51.094;3.490;2023-04-24T09:26:03;10.90;99.90
56861;DHT22;42744;51.094;3.490;2023-04-24T09:28:32;10.90;99.90
56861;DHT22;42744;51.094;3.490;2023-04-24T09:31:09;11.00;99.90
56861;DHT22;42744;51.094;3.490;2023-04-24T09:33:36;11.10;99.90
56861;DHT22;42744;51.094;3.490;2023-04-24T09:36:03;11.10;99.90
56861;DHT22;42744;51.094;3.490;2023-04-24T09:38:36;11.10;99.90
56861;DHT22;42744;51.094;3.490;2023-04-24T09:41:05;11.10;99.90
56861;DHT22;42744;51.094;3.490;2023-04-24T09:43:32;11.10;99.90
56861;DHT22;42744;51.094;3.490;2023-04-24T09:46:06;11.20;99.90
56861;DHT22;42744;51.094;3.490;2023-04-24T09:48:37;11.30;99.90
56861;DHT22;42744;51.094;3.490;2023-04-24T09:51:05;11.30;99.90
56861;DHT22;42744;51.094;3.490;2023-04-24T09:53:37;11.30;99.90
56861;DHT22;42744;51.094;3.490;2023-04-24T09:56:09;11.30;99.90
56861;DHT22;42744;51.094;3.490;2023-04-24T09:58:38;11.40;99.90
56861;DHT22;42744;51.094;3.490;2023-04-24T10:01:05;11.50;99.90
56861;DHT22;42744;51.094;3.490;2023-04-24T10:03:34;11.50;99.90
56861;DHT22;42744;51.094;3.490;2023-04-24T10:06:01;11.60;99.90
56861;DHT22;42744;51.094;3.490;2023-04-24T10:08:33;11.60;99.90
56861;DHT22;42744;51.094;3.490;2023-04-24T10:11:00;11.60;99.90
56861;DHT22;42744;51.094;3.490;2023-04-24T10:13:27;11.70;99.90
56861;DHT22;42744;51.094;3.490;2023-04-24T10:15:54;11.70;99.90
56861;DHT22;42744;51.094;3.490;2023-04-24T10:18:22;11.70;99.90
56861;DHT22;42744;51.094;3.490;2023-04-24T10:20:48;11.80;99.90
56861;DHT22;42744;51.094;3.490;2023-04-24T10:23:15;11.90;99.90
56861;DHT22;42744;51.094;3.490;2023-04-24T10:25:42;12.10;99.90
56861;DHT22;42744;51.094;3.490;2023-04-24T10:28:09;12.50;99.90
56861;DHT22;42744;51.094;3.490;2023-04-24T10:30:36;12.70;99.90
56861;DHT22;42744;51.094;3.490;2023-04-24T10:33:03;12.90;99.90
56861;DHT22;42744;51.094;3.490;2023-04-24T10:35:36;12.90;99.90
56861;DHT22;42744;51.094;3.490;2023-04-24T10:38:14;12.80;99.90
56861;DHT22;42744;51.094;3.490;2023-04-24T10:40:40;12.60;99.90
56861;DHT22;42744;51.094;3.490;2023-04-24T10:43:08;12.30;99.90
56861;DHT22;42744;51.094;3.490;2023-04-24T10:45:37;12.20;99.90
56861;DHT22;42744;51.094;3.490;2023-04-24T10:48:05;12.20;99.90
56861;DHT22;42744;51.094;3.490;2023-04-24T10:50:44;12.20;99.90
56861;DHT22;42744;51.094;3.490;2023-04-24T10:53:30;12.30;99.90
56861;DHT22;42744;51.094;3.490;2023-04-24T10:56:06;12.50;99.90
56861;DHT22;42744;51.094;3.490;2023-04-24T11:01:07;12.90;99.90
56861;DHT22;42744;51.094;3.490;2023-04-24T11:03:35;12.80;99.90
56861;DHT22;42744;51.094;3.490;2023-04-24T11:06:03;12.60;99.90
56861;DHT22;42744;51.094;3.490;2023-04-24T11:08:46;12.70;99.90
56861;DHT22;42744;51.094;3.490;2023-04-24T11:11:16;12.70;99.90
56861;DHT22;42744;51.094;3.490;2023-04-24T11:16:34;12.70;99.90
56861;DHT22;42744;51.094;3.490;2023-04-24T11:19:05;12.80;99.90
56861;DHT22;42744;51.094;3.490;2023-04-24T11:21:39;13.00;99.90
56861;DHT22;42744;51.094;3.490;2023-04-24T11:29:49;13.10;99.90
56861;DHT22;42744;51.094;3.490;2023-04-24T11:37:40;13.30;99.90
56861;DHT22;42744;51.094;3.490;2023-04-24T11:40:11;13.20;99.90
56861;DHT22;42744;51.094;3.490;2023-04-24T11:42:41;13.30;99.90
56861;DHT22;42744;51.094;3.490;2023-04-24T11:47:36;13.90;99.90
56861;DHT22;42744;51.094;3.490;2023-04-24T11:50:04;14.20;99.90
56861;DHT22;42744;51.094;3.490;2023-04-24T11:52:31;14.30;99.90
56861;DHT22;42744;51.094;3.490;2023-04-24T11:54:57;14.10;99.90
56861;DHT22;42744;51.094;3.490;2023-04-24T11:57:25;14.20;99.90
56861;DHT22;42744;51.094;3.490;2023-04-24T11:59:57;14.20;99.90
56861;DHT22;42744;51.094;3.490;2023-04-24T12:02:27;14.20;99.90
56861;DHT22;42744;51.094;3.490;2023-04-24T12:04:56;14.10;99.90
56861;DHT22;42744;51.094;3.490;2023-04-24T12:07:23;14.10;99.90
56861;DHT22;42744;51.094;3.490;2023-04-24T12:09:57;14.20;99.90
56861;DHT22;42744;51.094;3.490;2023-04-24T12:12:28;14.00;99.90
56861;DHT22;42744;51.094;3.490;2023-04-24T12:14:58;13.90;99.90
56861;DHT22;42744;51.094;3.490;2023-04-24T12:17:29;14.00;99.90
56861;DHT22;42744;51.094;3.490;2023-04-24T12:20:03;14.10;99.90
56861;DHT22;42744;51.094;3.490;2023-04-24T12:25:20;14.10;99.90
56861;DHT22;42744;51.094;3.490;2023-04-24T12:27:51;14.10;99.90
56861;DHT22;42744;51.094;3.490;2023-04-24T12:30:18;14.20;99.90
56861;DHT22;42744;51.094;3.490;2023-04-24T12:32:46;14.40;99.90
56861;DHT22;42744;51.094;3.490;2023-04-24T12:35:12;14.40;99.90
56861;DHT22;42744;51.094;3.490;2023-04-24T12:37:38;14.00;99.90
56861;DHT22;42744;51.094;3.490;2023-04-24T12:40:12;13.80;99.90
56861;DHT22;42744;51.094;3.490;2023-04-24T12:42:43;13.80;99.90
56861;DHT22;42744;51.094;3.490;2023-04-24T12:45:09;13.60;99.90
56861;DHT22;42744;51.094;3.490;2023-04-24T12:47:38;14.10;99.90
56861;DHT22;42744;51.094;3.490;2023-04-24T12:50:05;14.80;99.90
56861;DHT22;42744;51.094;3.490;2023-04-24T12:52:31;15.50;99.90
56861;DHT22;42744;51.094;3.490;2023-04-24T12:54:58;15.60;99.90
56861;DHT22;42744;51.094;3.490;2023-04-24T12:57:27;15.10;99.90
56861;DHT22;42744;51.094;3.490;2023-04-24T12:59:58;14.80;99.90
56861;DHT22;42744;51.094;3.490;2023-04-24T13:02:28;14.90;99.90
56861;DHT22;42744;51.094;3.490;2023-04-24T13:04:55;15.40;99.90
56861;DHT22;42744;51.094;3.490;2023-04-24T13:07:23;15.40;99.90
56861;DHT22;42744;51.094;3.490;2023-04-24T13:09:50;15.40;99.90
56861;DHT22;42744;51.094;3.490;2023-04-24T13:12:17;15.80;99.90
56861;DHT22;42744;51.094;3.490;2023-04-24T13:14:43;16.20;99.90
56861;DHT22;42744;51.094;3.490;2023-04-24T13:17:09;15.90;98.80
56861;DHT22;42744;51.094;3.490;2023-04-24T13:19:40;15.90;99.90
56861;DHT22;42744;51.094;3.490;2023-04-24T13:22:08;16.00;99.90
56861;DHT22;42744;51.094;3.490;2023-04-24T13:24:34;16.20;95.50
56861;DHT22;42744;51.094;3.490;2023-04-24T13:27:01;16.40;99.90
56861;DHT22;42744;51.094;3.490;2023-04-24T13:29:27;16.70;99.90
56861;DHT22;42744;51.094;3.490;2023-04-24T13:31:54;16.90;98.60
56861;DHT22;42744;51.094;3.490;2023-04-24T13:34:25;17.10;99.90
56861;DHT22;42744;51.094;3.490;2023-04-24T13:36:53;16.70;93.70
56861;DHT22;42744;51.094;3.490;2023-04-24T13:39:19;16.40;95.30
56861;DHT22;42744;51.094;3.490;2023-04-24T13:41:46;16.20;97.70
56861;DHT22;42744;51.094;3.490;2023-04-24T13:44:14;16.00;99.90
56861;DHT22;42744;51.094;3.490;2023-04-24T13:46:41;16.20;98.30
56861;DHT22;42744;51.094;3.490;2023-04-24T13:49:07;16.10;98.50
56861;DHT22;42744;51.094;3.490;2023-04-24T13:51:33;16.00;96.60
56861;DHT22;42744;51.094;3.490;2023-04-24T13:53:59;16.00;99.00
56861;DHT22;42744;51.094;3.490;2023-04-24T13:56:26;16.10;95.70
56861;DHT22;42744;51.094;3.490;2023-04-24T13:58:52;16.10;97.30
56861;DHT22;42744;51.094;3.490;2023-04-24T14:01:19;16.00;98.20
56861;DHT22;42744;51.094;3.490;2023-04-24T14:03:50;15.60;98.30
56861;DHT22;42744;51.094;3.490;2023-04-24T14:06:20;15.30;97.30
56861;DHT22;42744;51.094;3.490;2023-04-24T14:08:47;14.70;95.60
56861;DHT22;42744;51.094;3.490;2023-04-24T14:11:13;14.70;95.80
56861;DHT22;42744;51.094;3.490;2023-04-24T14:13:41;15.10;97.00
56861;DHT22;42744;51.094;3.490;2023-04-24T14:16:07;15.50;97.40
56861;DHT22;42744;51.094;3.490;2023-04-24T14:18:33;15.70;94.90
56861;DHT22;42744;51.094;3.490;2023-04-24T14:20:59;15.50;98.70
56861;DHT22;42744;51.094;3.490;2023-04-24T14:23:27;15.20;96.50
56861;DHT22;42744;51.094;3.490;2023-04-24T14:25:53;14.90;98.80
56861;DHT22;42744;51.094;3.490;2023-04-24T14:28:20;14.80;98.00
56861;DHT22;42744;51.094;3.490;2023-04-24T14:30:47;14.70;97.50
56861;DHT22;42744;51.094;3.490;2023-04-24T14:33:14;14.30;99.60
56861;DHT22;42744;51.094;3.490;2023-04-24T14:35:41;14.10;99.90
56861;DHT22;42744;51.094;3.490;2023-04-24T14:38:10;13.90;99.90
56861;DHT22;42744;51.094;3.490;2023-04-24T14:40:37;14.00;99.90
56861;DHT22;42744;51.094;3.490;2023-04-24T14:43:03;13.90;99.90
56861;DHT22;42744;51.094;3.490;2023-04-24T14:45:29;14.00;99.70
56861;DHT22;42744;51.094;3.490;2023-04-24T14:47:55;14.00;99.90
56861;DHT22;42744;51.094;3.490;2023-04-24T14:50:21;14.00;99.50
56861;DHT22;42744;51.094;3.490;2023-04-24T14:52:47;14.00;98.60
56861;DHT22;42744;51.094;3.490;2023-04-24T14:55:14;14.00;98.10
56861;DHT22;42744;51.094;3.490;2023-04-24T14:57:40;14.00;99.40
56861;DHT22;42744;51.094;3.490;2023-04-24T15:00:07;14.10;99.90
56861;DHT22;42744;51.094;3.490;2023-04-24T15:02:36;14.10;98.60
56861;DHT22;42744;51.094;3.490;2023-04-24T15:05:06;14.10;99.20
56861;DHT22;42744;51.094;3.490;2023-04-24T15:07:32;14.10;99.30
56861;DHT22;42744;51.094;3.490;2023-04-24T15:09:59;14.00;99.60
56861;DHT22;42744;51.094;3.490;2023-04-24T15:12:25;13.90;99.90
56861;DHT22;42744;51.094;3.490;2023-04-24T15:14:51;13.80;98.30
56861;DHT22;42744;51.094;3.490;2023-04-24T15:17:17;13.80;99.80
56861;DHT22;42744;51.094;3.490;2023-04-24T15:19:43;13.90;99.50
56861;DHT22;42744;51.094;3.490;2023-04-24T15:22:09;14.30;99.90
56861;DHT22;42744;51.094;3.490;2023-04-24T15:24:36;14.50;99.90
56861;DHT22;42744;51.094;3.490;2023-04-24T15:27:01;14.40;96.40
56861;DHT22;42744;51.094;3.490;2023-04-24T15:29:29;14.40;98.50
56861;DHT22;42744;51.094;3.490;2023-04-24T15:31:55;14.80;99.40
56861;DHT22;42744;51.094;3.490;2023-04-24T15:34:21;15.00;98.80
56861;DHT22;42744;51.094;3.490;2023-04-24T15:36:47;14.60;97.40
56861;DHT22;42744;51.094;3.490;2023-04-24T15:39:13;14.20;98.80
56861;DHT22;42744;51.094;3.490;2023-04-24T15:41:39;13.80;99.30
56861;DHT22;42744;51.094;3.490;2023-04-24T15:44:05;13.60;99.90
56861;DHT22;42744;51.094;3.490;2023-04-24T15:46:31;13.30;99.90
56861;DHT22;42744;51.094;3.490;2023-04-24T15:48:57;13.20;99.90
56861;DHT22;42744;51.094;3.490;2023-04-24T15:51:22;13.20;99.90
56861;DHT22;42744;51.094;3.490;2023-04-24T15:53:49;13.10;99.90
56861;DHT22;42744;51.094;3.490;2023-04-24T15:56:14;13.00;99.90
56861;DHT22;42744;51.094;3.490;2023-04-24T15:58:40;12.90;99.90
56861;DHT22;42744;51.094;3.490;2023-04-24T16:01:07;12.80;99.90
56861;DHT22;42744;51.094;3.490;2023-04-24T16:03:33;12.80;99.90